Time,TemperatureF,DewpointF,PressureIn,WindDirection,WindDirectionDegrees,WindSpeedMPH,WindSpeedGustMPH,Humidity,HourlyPrecipIn,Conditions,Clouds,dailyrainin,SoftwareType,DateUTC
2013-03-05 00:01:00,13.0,8.0,-100.00,NNW,334,0.0,1.0,79,-99.99,,,-99.99,,2013-03-05 07:01:00,
2013-03-05 00:11:00,13.0,8.0,-100.00,NNW,334,0.0,1.0,79,-99.99,,,-99.99,,2013-03-05 07:11:00,
2013-03-05 00:21:00,13.0,8.0,-100.00,NNW,341,1.0,2.0,78,-99.99,,,-99.99,,2013-03-05 07:21:00,
2013-03-05 00:31:00,13.0,8.0,-100.00,North,0,0.0,2.0,79,-99.99,,,-99.99,,2013-03-05 07:31:00,
2013-03-05 00:41:00,13.0,7.0,-100.00,North,0,0.0,1.0,79,-99.99,,,-99.99,,2013-03-05 07:41:00,
2013-03-05 00:51:00,13.0,7.0,-100.00,North,0,0.0,1.0,79,-99.99,,,-99.99,,2013-03-05 07:51:00,
2013-03-05 01:02:00,12.0,7.0,-100.00,North,3,2.0,2.0,80,-99.99,,,-99.99,,2013-03-05 08:02:00,
2013-03-05 01:11:00,11.0,6.0,-100.00,NNW,335,1.0,2.0,79,-99.99,,,-99.99,,2013-03-05 08:11:00,
2013-03-05 01:21:00,11.0,6.0,-100.00,NNW,335,1.0,2.0,79,-99.99,,,-99.99,,2013-03-05 08:21:00,
2013-03-05 01:31:00,11.0,6.0,-100.00,NNW,335,1.0,2.0,79,-99.99,,,-99.99,,2013-03-05 08:31:00,
2013-03-05 01:41:00,12.0,8.0,-100.00,ESE,111,0.0,2.0,82,-99.99,,,-99.99,,2013-03-05 08:41:00,
2013-03-05 01:51:00,13.0,8.0,-100.00,ENE,77,1.0,2.0,81,-99.99,,,-99.99,,2013-03-05 08:51:00,
2013-03-05 02:01:00,12.0,7.0,-100.00,North,0,0.0,2.0,79,-99.99,,,-99.99,,2013-03-05 09:01:00,
2013-03-05 02:11:00,10.0,5.0,-100.00,NW,319,2.0,2.0,80,-99.99,,,-99.99,,2013-03-05 09:11:00,
2013-03-05 02:21:00,10.0,5.0,-100.00,NW,319,2.0,2.0,80,-99.99,,,-99.99,,2013-03-05 09:21:00,
2013-03-05 02:31:00,10.0,5.0,-100.00,NW,319,2.0,2.0,80,-99.99,,,-99.99,,2013-03-05 09:31:00,
2013-03-05 02:42:00,10.0,6.0,-100.00,North,0,0.0,0.0,81,-99.99,,,-99.99,,2013-03-05 09:42:00,
2013-03-05 02:51:00,10.0,5.0,-100.00,North,0,0.0,1.0,81,-99.99,,,-99.99,,2013-03-05 09:51:00,
2013-03-05 03:01:00,10.0,5.0,-100.00,North,0,0.0,1.0,81,-99.99,,,-99.99,,2013-03-05 10:01:00,
2013-03-05 03:11:00,12.0,7.0,-100.00,South,177,1.0,2.0,80,-99.99,,,-99.99,,2013-03-05 10:11:00,
2013-03-05 03:21:00,12.0,7.0,-100.00,South,177,1.0,2.0,80,-99.99,,,-99.99,,2013-03-05 10:21:00,
2013-03-05 03:32:00,10.0,5.0,-100.00,WNW,303,1.0,3.0,81,-99.99,,,-99.99,,2013-03-05 10:32:00,
2013-03-05 03:41:00,9.0,4.0,-100.00,North,0,0.0,1.0,81,-99.99,,,-99.99,,2013-03-05 10:41:00,
2013-03-05 03:51:00,9.0,4.0,-100.00,North,0,0.0,1.0,81,-99.99,,,-99.99,,2013-03-05 10:51:00,
2013-03-05 04:01:00,10.0,5.0,-100.00,North,0,0.0,2.0,82,-99.99,,,-99.99,,2013-03-05 11:01:00,
2013-03-05 04:11:00,10.0,5.0,-100.00,North,0,0.0,2.0,82,-99.99,,,-99.99,,2013-03-05 11:11:00,
2013-03-05 04:21:00,9.0,5.0,-100.00,North,0,0.0,1.0,81,-99.99,,,-99.99,,2013-03-05 11:21:00,
2013-03-05 04:32:00,9.0,5.0,-100.00,NNW,345,1.0,2.0,80,-99.99,,,-99.99,,2013-03-05 11:32:00,
2013-03-05 04:41:00,9.0,5.0,-100.00,NNW,345,1.0,2.0,80,-99.99,,,-99.99,,2013-03-05 11:41:00,
2013-03-05 04:52:00,9.0,5.0,-100.00,East,86,1.0,2.0,82,-99.99,,,-99.99,,2013-03-05 11:52:00,
2013-03-05 05:02:00,10.0,5.0,-100.00,NE,54,0.0,1.0,79,-99.99,,,-99.99,,2013-03-05 12:02:00,
2013-03-05 05:11:00,10.0,4.0,-100.00,North,0,0.0,0.0,76,-99.99,,,-99.99,,2013-03-05 12:11:00,
2013-03-05 05:22:00,10.0,4.0,-100.00,North,0,0.0,0.0,76,-99.99,,,-99.99,,2013-03-05 12:22:00,
2013-03-05 05:32:00,9.0,3.0,-100.00,North,0,0.0,3.0,74,-99.99,,,-99.99,,2013-03-05 12:32:00,
2013-03-05 05:42:00,9.0,3.0,-100.00,NW,304,0.0,1.0,74,-99.99,,,-99.99,,2013-03-05 12:42:00,
2013-03-05 05:52:00,9.0,3.0,-100.00,NW,304,0.0,1.0,74,-99.99,,,-99.99,,2013-03-05 12:52:00,
2013-03-05 06:01:00,9.0,3.0,-100.00,NW,304,0.0,1.0,74,-99.99,,,-99.99,,2013-03-05 13:01:00,
2013-03-05 06:11:00,9.0,4.0,-100.00,ENE,65,3.0,3.0,78,-99.99,,,-99.99,,2013-03-05 13:11:00,
2013-03-05 06:21:00,9.0,4.0,-100.00,ENE,65,3.0,3.0,78,-99.99,,,-99.99,,2013-03-05 13:21:00,
2013-03-05 06:31:00,10.0,2.0,-100.00,WSW,256,2.0,4.0,69,-99.99,,,-99.99,,2013-03-05 13:31:00,
2013-03-05 06:42:00,8.0,1.0,-100.00,WSW,255,2.0,2.0,73,-99.99,,,-99.99,,2013-03-05 13:42:00,
2013-03-05 06:51:00,8.0,1.0,-100.00,WSW,255,2.0,2.0,73,-99.99,,,-99.99,,2013-03-05 13:51:00,
2013-03-05 07:02:00,9.0,3.0,-100.00,NNE,29,0.0,1.0,75,-99.99,,,-99.99,,2013-03-05 14:02:00,
2013-03-05 07:11:00,8.0,2.0,-100.00,WNW,288,0.0,2.0,75,-99.99,,,-99.99,,2013-03-05 14:11:00,
2013-03-05 07:21:00,8.0,2.0,-100.00,WNW,288,0.0,2.0,75,-99.99,,,-99.99,,2013-03-05 14:21:00,
2013-03-05 07:31:00,8.0,2.0,-100.00,WNW,288,0.0,2.0,75,-99.99,,,-99.99,,2013-03-05 14:31:00,
2013-03-05 07:41:00,9.0,3.0,-100.00,ENE,63,2.0,3.0,75,-99.99,,,-99.99,,2013-03-05 14:41:00,
2013-03-05 07:52:00,10.0,4.0,-100.00,NE,45,3.0,5.0,75,-99.99,,,-99.99,,2013-03-05 14:52:00,
2013-03-05 08:01:00,10.0,4.0,-100.00,NE,45,3.0,5.0,75,-99.99,,,-99.99,,2013-03-05 15:01:00,
2013-03-05 08:11:00,12.0,6.0,-100.00,North,0,0.0,2.0,75,-99.99,,,-99.99,,2013-03-05 15:11:00,
2013-03-05 08:21:00,12.0,6.0,-100.00,North,0,0.0,2.0,75,-99.99,,,-99.99,,2013-03-05 15:21:00,
2013-03-05 08:32:00,15.0,7.0,-100.00,West,265,3.0,3.0,70,-99.99,,,-99.99,,2013-03-05 15:32:00,
2013-03-05 08:42:00,14.0,7.0,-100.00,WSW,247,1.0,4.0,73,-99.99,,,-99.99,,2013-03-05 15:42:00,
2013-03-05 08:51:00,14.0,7.0,-100.00,WSW,247,1.0,4.0,73,-99.99,,,-99.99,,2013-03-05 15:51:00,
2013-03-05 09:01:00,14.0,7.0,-100.00,WSW,247,1.0,4.0,73,-99.99,,,-99.99,,2013-03-05 16:01:00,
2013-03-05 09:11:00,16.0,8.0,-100.00,WNW,287,3.0,4.0,68,-99.99,,,-99.99,,2013-03-05 16:11:00,
2013-03-05 09:21:00,16.0,8.0,-100.00,WNW,287,3.0,4.0,68,-99.99,,,-99.99,,2013-03-05 16:21:00,
2013-03-05 09:32:00,18.0,9.0,-100.00,West,263,1.0,2.0,67,-99.99,,,-99.99,,2013-03-05 16:32:00,
2013-03-05 09:41:00,18.0,9.0,-100.00,West,263,1.0,2.0,67,-99.99,,,-99.99,,2013-03-05 16:41:00,
2013-03-05 09:51:00,21.0,10.0,-100.00,North,0,0.0,1.0,62,-99.99,,,-99.99,,2013-03-05 16:51:00,
2013-03-05 10:01:00,22.0,9.0,-100.00,WSW,250,2.0,3.0,56,-99.99,,,-99.99,,2013-03-05 17:01:00,
2013-03-05 10:11:00,24.0,10.0,-100.00,West,268,2.0,4.0,55,-99.99,,,-99.99,,2013-03-05 17:11:00,
2013-03-05 10:21:00,24.0,10.0,-100.00,West,268,2.0,4.0,55,-99.99,,,-99.99,,2013-03-05 17:21:00,
2013-03-05 10:32:00,26.0,11.0,-100.00,West,271,2.0,4.0,51,-99.99,,,-99.99,,2013-03-05 17:32:00,
2013-03-05 10:41:00,27.0,9.0,-100.00,NW,312,4.0,4.0,46,-99.99,,,-99.99,,2013-03-05 17:41:00,
2013-03-05 10:52:00,27.0,9.0,-100.00,NW,312,4.0,4.0,46,-99.99,,,-99.99,,2013-03-05 17:52:00,
2013-03-05 11:01:00,27.0,9.0,-100.00,NW,312,4.0,4.0,46,-99.99,,,-99.99,,2013-03-05 18:01:00,
2013-03-05 11:11:00,31.0,8.0,-100.00,ESE,120,7.0,10.0,36,-99.99,,,-99.99,,2013-03-05 18:11:00,
2013-03-05 11:21:00,31.0,8.0,-100.00,ESE,120,7.0,10.0,36,-99.99,,,-99.99,,2013-03-05 18:21:00,
2013-03-05 11:32:00,33.0,8.0,-100.00,SE,134,10.0,14.0,34,-99.99,,,-99.99,,2013-03-05 18:32:00,
2013-03-05 11:41:00,33.0,8.0,-100.00,SE,134,10.0,14.0,34,-99.99,,,-99.99,,2013-03-05 18:41:00,
2013-03-05 11:52:00,34.0,12.0,-100.00,West,273,5.0,9.0,40,-99.99,,,-99.99,,2013-03-05 18:52:00,
2013-03-05 12:01:00,34.0,12.0,-100.00,West,273,5.0,9.0,40,-99.99,,,-99.99,,2013-03-05 19:01:00,
2013-03-05 12:11:00,37.0,10.0,-100.00,SSW,204,6.0,16.0,32,-99.99,,,-99.99,,2013-03-05 19:11:00,
2013-03-05 12:21:00,37.0,8.0,-100.00,South,173,2.0,7.0,29,-99.99,,,-99.99,,2013-03-05 19:21:00,
2013-03-05 12:31:00,37.0,8.0,-100.00,South,173,2.0,7.0,29,-99.99,,,-99.99,,2013-03-05 19:31:00,
2013-03-05 12:41:00,37.0,9.0,-100.00,SW,234,4.0,7.0,29,-99.99,,,-99.99,,2013-03-05 19:41:00,
2013-03-05 12:51:00,38.0,9.0,-100.00,West,279,4.0,6.0,28,-99.99,,,-99.99,,2013-03-05 19:51:00,
2013-03-05 13:01:00,38.0,9.0,-100.00,West,279,4.0,6.0,28,-99.99,,,-99.99,,2013-03-05 20:01:00,
2013-03-05 13:11:00,40.0,10.0,-100.00,North,2,1.0,3.0,28,-99.99,,,-99.99,,2013-03-05 20:11:00,
2013-03-05 13:21:00,42.0,11.0,-100.00,WSW,250,2.0,3.0,28,-99.99,,,-99.99,,2013-03-05 20:21:00,
2013-03-05 13:32:00,42.0,9.0,-100.00,NW,318,1.0,6.0,25,-99.99,,,-99.99,,2013-03-05 20:32:00,
2013-03-05 13:41:00,42.0,13.0,-100.00,West,268,3.0,5.0,30,-99.99,,,-99.99,,2013-03-05 20:41:00,
2013-03-05 13:52:00,42.0,13.0,-100.00,West,268,3.0,5.0,30,-99.99,,,-99.99,,2013-03-05 20:52:00,
2013-03-05 14:01:00,43.0,12.0,-100.00,NW,326,2.0,7.0,27,-99.99,,,-99.99,,2013-03-05 21:01:00,
2013-03-05 14:11:00,44.0,11.0,-100.00,WSW,240,1.0,8.0,25,-99.99,,,-99.99,,2013-03-05 21:11:00,
2013-03-05 14:21:00,44.0,11.0,-100.00,WSW,240,1.0,8.0,25,-99.99,,,-99.99,,2013-03-05 21:21:00,
2013-03-05 14:31:00,44.0,3.0,-100.00,SSE,151,15.0,19.0,17,-99.99,,,-99.99,,2013-03-05 21:31:00,
2013-03-05 14:41:00,45.0,2.0,-100.00,SSE,151,14.0,18.0,16,-99.99,,,-99.99,,2013-03-05 21:41:00,
2013-03-05 14:52:00,45.0,2.0,-100.00,SSE,151,14.0,18.0,16,-99.99,,,-99.99,,2013-03-05 21:52:00,
2013-03-05 15:01:00,46.0,4.0,-100.00,SE,138,16.0,19.0,17,-99.99,,,-99.99,,2013-03-05 22:01:00,
2013-03-05 15:11:00,46.0,2.0,-100.00,SE,142,14.0,18.0,15,-99.99,,,-99.99,,2013-03-05 22:11:00,
2013-03-05 15:21:00,46.0,2.0,-100.00,SE,142,14.0,18.0,15,-99.99,,,-99.99,,2013-03-05 22:21:00,
2013-03-05 15:32:00,46.0,2.0,-100.00,SE,142,14.0,18.0,15,-99.99,,,-99.99,,2013-03-05 22:32:00,
2013-03-05 15:41:00,46.0,4.0,-100.00,SE,146,14.0,17.0,17,-99.99,,,-99.99,,2013-03-05 22:41:00,
2013-03-05 15:51:00,46.0,5.0,-100.00,SE,141,14.0,17.0,17,-99.99,,,-99.99,,2013-03-05 22:51:00,
2013-03-05 16:01:00,46.0,8.0,-100.00,SE,127,12.0,16.0,20,-99.99,,,-99.99,,2013-03-05 23:01:00,
2013-03-05 16:11:00,47.0,6.0,-100.00,SE,133,17.0,21.0,18,-99.99,,,-99.99,,2013-03-05 23:11:00,
2013-03-05 16:21:00,47.0,6.0,-100.00,SE,133,17.0,21.0,18,-99.99,,,-99.99,,2013-03-05 23:21:00,
2013-03-05 16:32:00,47.0,6.0,-100.00,SE,133,17.0,21.0,18,-99.99,,,-99.99,,2013-03-05 23:32:00,
2013-03-05 16:41:00,47.0,9.0,-100.00,SE,135,17.0,22.0,20,-99.99,,,-99.99,,2013-03-05 23:41:00,
2013-03-05 16:52:00,47.0,9.0,-100.00,SE,135,17.0,22.0,20,-99.99,,,-99.99,,2013-03-05 23:52:00,
2013-03-05 17:01:00,47.0,9.0,-100.00,SE,134,17.0,23.0,21,-99.99,,,-99.99,,2013-03-06 00:01:00,
2013-03-05 17:11:00,46.0,8.0,-100.00,SE,146,14.0,23.0,20,-99.99,,,-99.99,,2013-03-06 00:11:00,
2013-03-05 17:21:00,46.0,8.0,-100.00,SE,146,14.0,23.0,20,-99.99,,,-99.99,,2013-03-06 00:21:00,
2013-03-05 17:32:00,45.0,10.0,-100.00,SE,141,17.0,20.0,23,-99.99,,,-99.99,,2013-03-06 00:32:00,
2013-03-05 17:41:00,45.0,10.0,-100.00,SE,141,17.0,20.0,23,-99.99,,,-99.99,,2013-03-06 00:41:00,
2013-03-05 17:51:00,45.0,10.0,-100.00,SE,140,17.0,21.0,24,-99.99,,,-99.99,,2013-03-06 00:51:00,
2013-03-05 18:01:00,43.0,11.0,-100.00,SE,140,19.0,26.0,26,-99.99,,,-99.99,,2013-03-06 01:01:00,
2013-03-05 18:11:00,43.0,11.0,-100.00,SE,141,16.0,22.0,27,-99.99,,,-99.99,,2013-03-06 01:11:00,
2013-03-05 18:21:00,43.0,11.0,-100.00,SE,141,16.0,22.0,27,-99.99,,,-99.99,,2013-03-06 01:21:00,
2013-03-05 18:31:00,41.0,13.0,-100.00,SE,139,18.0,21.0,31,-99.99,,,-99.99,,2013-03-06 01:31:00,
2013-03-05 18:41:00,40.0,13.0,-100.00,SE,140,16.0,21.0,32,-99.99,,,-99.99,,2013-03-06 01:41:00,
2013-03-05 18:51:00,40.0,13.0,-100.00,SE,140,16.0,21.0,32,-99.99,,,-99.99,,2013-03-06 01:51:00,
2013-03-05 19:01:00,41.0,10.0,-100.00,SSE,150,16.0,19.0,27,-99.99,,,-99.99,,2013-03-06 02:01:00,
2013-03-05 19:11:00,41.0,10.0,-100.00,SSE,157,18.0,22.0,27,-99.99,,,-99.99,,2013-03-06 02:11:00,
2013-03-05 19:21:00,41.0,10.0,-100.00,SSE,157,18.0,22.0,27,-99.99,,,-99.99,,2013-03-06 02:21:00,
2013-03-05 19:31:00,41.0,9.0,-100.00,SSE,155,19.0,21.0,26,-99.99,,,-99.99,,2013-03-06 02:31:00,
2013-03-05 19:41:00,41.0,9.0,-100.00,SSE,155,20.0,22.0,26,-99.99,,,-99.99,,2013-03-06 02:41:00,
2013-03-05 19:52:00,41.0,9.0,-100.00,SSE,155,20.0,22.0,26,-99.99,,,-99.99,,2013-03-06 02:52:00,
2013-03-05 20:01:00,40.0,9.0,-100.00,SSE,151,20.0,25.0,26,-99.99,,,-99.99,,2013-03-06 03:01:00,
2013-03-05 20:11:00,40.0,10.0,-100.00,SE,146,17.0,22.0,28,-99.99,,,-99.99,,2013-03-06 03:11:00,
2013-03-05 20:21:00,40.0,10.0,-100.00,SE,146,17.0,22.0,28,-99.99,,,-99.99,,2013-03-06 03:21:00,
2013-03-05 20:31:00,39.0,10.0,-100.00,SE,142,15.0,22.0,29,-99.99,,,-99.99,,2013-03-06 03:31:00,
2013-03-05 20:41:00,39.0,10.0,-100.00,SE,142,15.0,22.0,29,-99.99,,,-99.99,,2013-03-06 03:41:00,
2013-03-05 20:52:00,39.0,10.0,-100.00,SSE,147,16.0,22.0,29,-99.99,,,-99.99,,2013-03-06 03:52:00,
2013-03-05 21:01:00,39.0,10.0,-100.00,SSE,147,16.0,22.0,29,-99.99,,,-99.99,,2013-03-06 04:01:00,
2013-03-05 21:11:00,37.0,12.0,-100.00,SE,135,16.0,21.0,34,-99.99,,,-99.99,,2013-03-06 04:11:00,
2013-03-05 21:21:00,37.0,12.0,-100.00,SE,135,16.0,21.0,34,-99.99,,,-99.99,,2013-03-06 04:21:00,
2013-03-05 21:32:00,37.0,12.0,-100.00,SE,135,16.0,21.0,34,-99.99,,,-99.99,,2013-03-06 04:32:00,
2013-03-05 21:41:00,36.0,14.0,-100.00,East,93,3.0,10.0,39,-99.99,,,-99.99,,2013-03-06 04:41:00,
2013-03-05 21:51:00,36.0,14.0,-100.00,East,93,3.0,10.0,39,-99.99,,,-99.99,,2013-03-06 04:51:00,
2013-03-05 22:01:00,36.0,14.0,-100.00,East,93,3.0,10.0,39,-99.99,,,-99.99,,2013-03-06 05:01:00,
2013-03-05 22:11:00,36.0,11.0,-100.00,West,273,3.0,10.0,35,-99.99,,,-99.99,,2013-03-06 05:11:00,
2013-03-05 22:22:00,36.0,11.0,-100.00,West,273,3.0,10.0,35,-99.99,,,-99.99,,2013-03-06 05:22:00,
2013-03-05 22:32:00,35.0,12.0,-100.00,ENE,58,4.0,8.0,38,-99.99,,,-99.99,,2013-03-06 05:32:00,
2013-03-05 22:42:00,35.0,12.0,-100.00,ENE,58,4.0,8.0,38,-99.99,,,-99.99,,2013-03-06 05:42:00,
2013-03-05 22:52:00,34.0,12.0,-100.00,SE,143,7.0,12.0,39,-99.99,,,-99.99,,2013-03-06 05:52:00,
2013-03-05 23:01:00,34.0,12.0,-100.00,SE,143,7.0,12.0,39,-99.99,,,-99.99,,2013-03-06 06:01:00,
2013-03-05 23:11:00,34.0,13.0,-100.00,SSE,148,7.0,14.0,40,-99.99,,,-99.99,,2013-03-06 06:11:00,
2013-03-05 23:22:00,34.0,12.0,-100.00,SE,127,9.0,15.0,39,-99.99,,,-99.99,,2013-03-06 06:22:00,
2013-03-05 23:31:00,34.0,13.0,-100.00,SSW,193,1.0,10.0,40,-99.99,,,-99.99,,2013-03-06 06:31:00,
2013-03-05 23:41:00,34.0,13.0,-100.00,SSW,193,1.0,10.0,40,-99.99,,,-99.99,,2013-03-06 06:41:00,
2013-03-05 23:52:00,35.0,12.0,-100.00,SE,128,7.0,10.0,37,-99.99,,,-99.99,,2013-03-06 06:52:00,